createdAt,value
2023-01-28T00:04:44.805Z,-7.13
2023-01-28T00:09:47.465Z,-7.05
2023-01-28T00:14:50.070Z,-7.02
2023-01-28T00:19:52.738Z,-7.18
2023-01-28T00:24:55.277Z,-7.00
2023-01-28T00:29:57.905Z,-7.07
2023-01-28T00:35:00.497Z,-7.37
2023-01-28T00:40:03.089Z,-7.56
2023-01-28T00:45:07.181Z,-7.75
2023-01-28T00:50:10.242Z,-7.65
2023-01-28T00:55:13.397Z,-7.98
2023-01-28T01:00:18.353Z,-7.81
2023-01-28T01:05:20.934Z,-7.48
2023-01-28T01:10:23.460Z,-7.58
2023-01-28T01:15:26.158Z,-7.51
2023-01-28T01:20:33.875Z,-7.59
2023-01-28T01:25:36.435Z,-7.37
2023-01-28T01:30:39.027Z,-7.40
2023-01-28T01:35:41.682Z,-7.49
2023-01-28T01:40:44.264Z,-7.50
2023-01-28T01:46:01.079Z,-7.50
2023-01-28T01:51:10.092Z,-7.81
2023-01-28T01:56:18.015Z,-8.06
2023-01-28T02:01:23.396Z,-7.95
2023-01-28T02:06:26.955Z,-7.83
2023-01-28T02:11:32.309Z,-7.87
2023-01-28T02:16:35.161Z,-7.97
2023-01-28T02:21:58.184Z,-7.84
2023-01-28T02:27:19.351Z,-8.08
2023-01-28T02:32:31.239Z,-8.36
2023-01-28T02:37:55.984Z,-8.41
2023-01-28T02:42:59.762Z,-8.26
2023-01-28T02:48:02.460Z,-8.43
2023-01-28T02:53:39.194Z,-8.34
2023-01-28T02:59:32.574Z,-8.31
2023-01-28T03:04:56.035Z,-8.35
2023-01-28T03:10:06.329Z,-8.57
2023-01-28T03:15:38.587Z,-8.56
2023-01-28T03:21:08.495Z,-8.43
2023-01-28T03:26:32.884Z,-8.40
2023-01-28T03:31:56.458Z,-8.68
2023-01-28T03:37:00.421Z,-8.48
2023-01-28T03:42:19.116Z,-8.91
2023-01-28T03:47:41.723Z,-9.04
2023-01-28T03:52:46.723Z,-9.20
2023-01-28T03:58:06.149Z,-9.31
2023-01-28T04:03:18.835Z,-9.10
2023-01-28T04:08:29.942Z,-9.15
2023-01-28T04:14:07.891Z,-8.87
2023-01-28T04:19:19.150Z,-8.88
2023-01-28T04:24:23.703Z,-8.97
2023-01-28T04:29:26.612Z,-9.19
2023-01-28T04:34:34.265Z,-9.28
2023-01-28T04:39:55.356Z,-9.21
2023-01-28T04:45:16.921Z,-9.26
2023-01-28T04:50:46.129Z,-9.16
2023-01-28T04:56:02.361Z,-9.10
2023-01-28T05:01:08.471Z,-8.99
2023-01-28T05:06:11.364Z,-8.74
2023-01-28T05:11:22.401Z,-7.88
2023-01-28T05:16:29.337Z,-7.48
2023-01-28T05:21:32.726Z,-7.34
2023-01-28T05:26:39.302Z,-7.05
2023-01-28T05:31:42.022Z,-6.57
2023-01-28T05:36:45.734Z,-6.39
2023-01-28T05:42:10.052Z,-5.73
2023-01-28T05:47:18.637Z,-5.15
2023-01-28T05:52:41.544Z,-5.21
2023-01-28T05:57:52.292Z,-5.48
2023-01-28T06:02:58.367Z,-5.87
2023-01-28T06:08:01.340Z,-5.37
2023-01-28T06:13:04.116Z,-3.70
2023-01-28T06:18:29.888Z,-1.93
2023-01-28T06:23:32.748Z,-1.42
2023-01-28T06:28:35.473Z,-1.14
2023-01-28T06:33:38.114Z,-0.17
2023-01-28T06:38:40.880Z,0.24
2023-01-28T06:43:43.443Z,0.38
2023-01-28T06:48:46.017Z,1.61
2023-01-28T06:53:48.613Z,2.41
2023-01-28T06:58:51.279Z,1.71
2023-01-28T07:03:53.913Z,1.13
2023-01-28T07:08:56.540Z,0.72
2023-01-28T07:13:59.222Z,0.61
2023-01-28T07:19:01.871Z,1.71
2023-01-28T07:24:05.629Z,2.77
2023-01-28T07:29:09.545Z,2.97
2023-01-28T07:34:12.273Z,3.73
2023-01-28T07:39:14.904Z,4.19
2023-01-28T07:44:17.515Z,4.13
2023-01-28T07:49:20.441Z,5.12
2023-01-28T07:54:23.035Z,6.71
2023-01-28T07:59:25.829Z,6.09
2023-01-28T08:04:28.551Z,5.88
2023-01-28T08:09:33.579Z,6.29
2023-01-28T08:14:36.483Z,6.30
2023-01-28T08:19:39.124Z,8.13
2023-01-28T08:24:41.729Z,8.43
2023-01-28T08:29:44.398Z,9.24
2023-01-28T08:34:47.013Z,10.82
2023-01-28T08:39:49.721Z,10.23
2023-01-28T08:44:52.384Z,10.80
2023-01-28T08:49:54.922Z,12.22
2023-01-28T08:54:58.643Z,11.25
2023-01-28T09:00:01.185Z,10.49
2023-01-28T09:05:06.025Z,11.72
2023-01-28T09:10:09.591Z,12.73
2023-01-28T09:15:13.083Z,12.14
2023-01-28T09:20:16.311Z,12.76
2023-01-28T09:25:19.265Z,11.85
2023-01-28T09:30:21.993Z,11.57
2023-01-28T09:35:25.568Z,12.43
2023-01-28T09:40:43.024Z,11.76
2023-01-28T09:45:49.078Z,10.99
2023-01-28T09:50:55.090Z,10.86
2023-01-28T09:56:03.034Z,10.18
2023-01-28T10:01:38.099Z,9.39
2023-01-28T10:07:18.839Z,8.72
2023-01-28T10:12:31.618Z,8.53
2023-01-28T10:17:50.108Z,8.93
2023-01-28T10:23:15.685Z,9.10
2023-01-28T10:28:25.937Z,7.75
2023-01-28T10:33:28.599Z,7.18
2023-01-28T10:38:32.219Z,7.36
2023-01-28T10:43:39.143Z,7.31
2023-01-28T10:49:07.573Z,6.91
2023-01-28T10:54:26.204Z,6.76
2023-01-28T10:59:36.935Z,7.30
2023-01-28T11:04:39.589Z,6.86
2023-01-28T11:09:50.413Z,6.86
2023-01-28T11:14:54.128Z,7.00
2023-01-28T11:20:11.447Z,7.13
2023-01-28T11:25:33.913Z,6.19
2023-01-28T11:30:40.667Z,6.51
2023-01-28T11:35:43.629Z,6.60
2023-01-28T11:40:57.480Z,6.05
2023-01-28T11:46:00.430Z,5.84
2023-01-28T11:51:11.442Z,5.65
2023-01-28T11:56:39.975Z,5.16
2023-01-28T12:02:01.946Z,5.24
2023-01-28T12:07:13.923Z,4.45
2023-01-28T12:12:39.701Z,3.92
2023-01-28T12:18:06.948Z,3.54
2023-01-28T12:23:30.805Z,2.94
2023-01-28T12:28:41.430Z,2.38
2023-01-28T12:34:02.686Z,1.79
2023-01-28T12:39:59.250Z,1.34
2023-01-28T12:45:12.645Z,0.87
2023-01-28T12:50:24.513Z,0.70
2023-01-28T12:55:47.283Z,0.74
2023-01-28T13:00:55.194Z,0.73
2023-01-28T13:06:04.660Z,0.79
2023-01-28T13:11:15.720Z,0.72
2023-01-28T13:16:21.287Z,0.68
2023-01-28T13:21:30.590Z,0.41
2023-01-28T13:26:44.407Z,0.40
2023-01-28T13:31:52.069Z,0.22
2023-01-28T13:36:55.865Z,-0.18
2023-01-28T13:42:23.143Z,-0.45
2023-01-28T13:47:36.113Z,-0.49
2023-01-28T13:53:05.383Z,-0.60
2023-01-28T13:58:44.127Z,-0.93
2023-01-28T14:04:05.328Z,-1.06
2023-01-28T14:09:38.855Z,-1.06
2023-01-28T14:15:03.028Z,-1.19
2023-01-28T14:20:27.555Z,-1.49
2023-01-28T14:26:04.864Z,-1.50
2023-01-28T14:31:15.815Z,-1.73
2023-01-28T14:36:18.519Z,-1.77
2023-01-28T14:41:26.811Z,-1.73
2023-01-28T14:47:05.904Z,-2.10
2023-01-28T14:52:08.453Z,-2.19
2023-01-28T14:57:42.028Z,-2.39
2023-01-28T15:02:45.271Z,-2.44
2023-01-28T15:07:51.773Z,-2.47
2023-01-28T15:13:18.042Z,-2.41
2023-01-28T15:18:30.970Z,-2.40
2023-01-28T15:23:37.767Z,-2.71
2023-01-28T15:28:41.289Z,-2.71
2023-01-28T15:33:43.891Z,-2.49
2023-01-28T15:38:46.583Z,-2.61
2023-01-28T15:43:52.577Z,-2.84
2023-01-28T15:49:01.362Z,-2.88
2023-01-28T15:54:07.259Z,-2.87
2023-01-28T15:59:27.335Z,-2.97
2023-01-28T16:04:30.551Z,-2.86
2023-01-28T16:09:35.418Z,-2.87
2023-01-28T16:14:49.569Z,-2.70
2023-01-28T16:19:59.219Z,-2.66
2023-01-28T16:25:02.413Z,-2.41
2023-01-28T16:30:06.412Z,-2.33
2023-01-28T16:35:17.939Z,-2.38
2023-01-28T16:40:24.547Z,-2.26
2023-01-28T16:45:27.752Z,-2.40
2023-01-28T16:50:32.984Z,-2.27
2023-01-28T16:55:35.625Z,-2.18
2023-01-28T17:00:39.379Z,-2.08
2023-01-28T17:05:42.611Z,-2.08
2023-01-28T17:10:45.426Z,-2.10
2023-01-28T17:15:48.053Z,-1.99
2023-01-28T17:20:50.828Z,-1.85
2023-01-28T17:25:53.456Z,-1.76
2023-01-28T17:30:56.381Z,-1.89
2023-01-28T17:35:58.990Z,-1.66
2023-01-28T17:41:06.902Z,-1.63
2023-01-28T17:46:17.341Z,-1.59
2023-01-28T17:51:20.578Z,-1.54
2023-01-28T17:56:29.099Z,-1.36
2023-01-28T18:01:31.742Z,-1.46
2023-01-28T18:06:36.157Z,-1.44
2023-01-28T18:11:38.900Z,-1.34
2023-01-28T18:16:41.476Z,-1.44
2023-01-28T18:21:52.699Z,-1.38
2023-01-28T18:27:01.225Z,-1.33
2023-01-28T18:32:05.542Z,-0.97
2023-01-28T18:37:10.326Z,-0.68
2023-01-28T18:42:13.641Z,-0.77
2023-01-28T18:47:16.694Z,-0.61
2023-01-28T18:52:19.389Z,-0.59
2023-01-28T18:57:22.032Z,-0.67
2023-01-28T19:02:24.633Z,-0.48
2023-01-28T19:07:27.436Z,-0.70
2023-01-28T19:12:31.974Z,-0.64
2023-01-28T19:17:35.549Z,-0.98
2023-01-28T19:22:38.869Z,-0.93
2023-01-28T19:27:42.596Z,-0.78
2023-01-28T19:32:45.245Z,-0.72
2023-01-28T19:37:47.900Z,-0.61
2023-01-28T19:42:53.520Z,-0.51
2023-01-28T19:47:56.108Z,-0.41
2023-01-28T19:52:58.730Z,-0.39
2023-01-28T19:58:01.278Z,-0.24
2023-01-28T20:03:08.644Z,-0.41
2023-01-28T20:08:11.387Z,-0.29
2023-01-28T20:13:14.035Z,-0.33
2023-01-28T20:18:16.577Z,-0.13
2023-01-28T20:23:19.221Z,0.04
2023-01-28T20:28:23.295Z,0.04
2023-01-28T20:33:25.979Z,0.06
2023-01-28T20:38:28.642Z,0.16
2023-01-28T20:43:34.354Z,0.08
2023-01-28T20:48:36.879Z,-0.33
2023-01-28T20:53:40.422Z,-0.43
2023-01-28T20:58:44.080Z,-0.26
2023-01-28T21:03:47.632Z,-0.26
2023-01-28T21:08:51.817Z,-0.44
2023-01-28T21:13:55.258Z,-0.38
2023-01-28T21:18:57.962Z,-0.82
2023-01-28T21:24:01.135Z,-0.68
2023-01-28T21:29:04.237Z,-0.71
2023-01-28T21:34:06.782Z,-0.81
2023-01-28T21:39:09.884Z,-0.81
2023-01-28T21:44:12.733Z,-0.93
2023-01-28T21:49:15.462Z,-0.96
2023-01-28T21:54:19.869Z,-0.92
2023-01-28T21:59:28.183Z,-0.83
2023-01-28T22:12:07.109Z,-0.83
2023-01-28T22:17:12.105Z,-0.52
2023-01-28T22:22:15.759Z,-0.26
2023-01-28T22:27:18.267Z,-0.52
2023-01-28T22:32:20.744Z,-0.58
2023-01-28T22:37:23.254Z,-0.43
2023-01-28T22:42:25.618Z,-0.54
2023-01-28T22:47:28.103Z,-0.60
2023-01-28T22:52:30.816Z,-0.52
2023-01-28T22:57:33.289Z,-0.79
2023-01-28T23:02:35.803Z,-0.66
2023-01-28T23:07:38.430Z,-0.55
2023-01-28T23:12:40.878Z,-0.89
2023-01-28T23:18:01.730Z,-0.63
2023-01-28T23:23:22.746Z,-0.67
2023-01-28T23:28:25.120Z,-0.88
2023-01-28T23:33:27.596Z,-1.02
2023-01-28T23:38:30.003Z,-0.99
2023-01-28T23:43:32.855Z,-1.07
2023-01-28T23:48:35.394Z,-0.93
2023-01-28T23:53:37.861Z,-0.72
2023-01-28T23:58:43.825Z,-0.80
